<?xml version="1.0" encoding="UTF-8" standalone="no" ?>
<gpx xmlns="http://www.topografix.com/GPX/1/1" xmlns:xsi="http://www.w3.org/2001/XMLSchema-instance" xsi:schemaLocation="http://www.topografix.com/GPX/1/1 http://www.topografix.com/GPX/1/1/gpx.xsd" version="1.1" creator="VisuGPX - https://www.visugpx.com">
  <metadata>
    <name>section 4 / 3.1km</name>
    <desc><![CDATA[

]]></desc>
  </metadata>
  <trk>
    <name><![CDATA[section 4 / 3.1km]]></name>
    <extensions>
      <line xmlns="http://www.topografix.com/GPX/gpx_style/0/2">
        <color>8a0000</color>
        <width>4</width>
      </line>
    </extensions>
    <trkseg>
      <trkpt lat="43.14562" lon="5.9846">
        <ele>91.46</ele>
        <time>2022-09-17T08:27:50Z</time>
      </trkpt>
      <trkpt lat="43.14567" lon="5.98504">
        <ele>91.46</ele>
        <time>2022-09-17T08:28:01Z</time>
      </trkpt>
      <trkpt lat="43.14573" lon="5.98511">
        <ele>90.98</ele>
        <time>2022-09-17T08:28:04Z</time>
      </trkpt>
      <trkpt lat="43.14586" lon="5.98516">
        <ele>91.46</ele>
        <time>2022-09-17T08:28:10Z</time>
      </trkpt>
      <trkpt lat="43.14595" lon="5.98538">
        <ele>91.46</ele>
        <time>2022-09-17T08:28:18Z</time>
      </trkpt>
      <trkpt lat="43.14623" lon="5.98561">
        <ele>90.98</ele>
        <time>2022-09-17T08:28:29Z</time>
      </trkpt>
      <trkpt lat="43.1466" lon="5.98568">
        <ele>90.98</ele>
        <time>2022-09-17T08:28:42Z</time>
      </trkpt>
      <trkpt lat="43.14668" lon="5.9857">
        <ele>91.94</ele>
        <time>2022-09-17T08:28:45Z</time>
      </trkpt>
      <trkpt lat="43.14708" lon="5.98597">
        <ele>91.94</ele>
        <time>2022-09-17T08:28:59Z</time>
      </trkpt>
      <trkpt lat="43.14741" lon="5.98618">
        <ele>91.94</ele>
        <time>2022-09-17T08:29:11Z</time>
      </trkpt>
      <trkpt lat="43.14775" lon="5.98641">
        <ele>93.39</ele>
        <time>2022-09-17T08:29:24Z</time>
      </trkpt>
      <trkpt lat="43.14805" lon="5.98645">
        <ele>94.83</ele>
        <time>2022-09-17T08:29:35Z</time>
      </trkpt>
      <trkpt lat="43.14839" lon="5.98643">
        <ele>99.15</ele>
        <time>2022-09-17T08:29:47Z</time>
      </trkpt>
      <trkpt lat="43.14841" lon="5.98643">
        <ele>99.15</ele>
        <time>2022-09-17T08:29:48Z</time>
      </trkpt>
      <trkpt lat="43.14847" lon="5.98644">
        <ele>99.63</ele>
        <time>2022-09-17T08:29:51Z</time>
      </trkpt>
      <trkpt lat="43.14857" lon="5.98642">
        <ele>99.63</ele>
        <time>2022-09-17T08:29:56Z</time>
      </trkpt>
      <trkpt lat="43.14876" lon="5.98632">
        <ele>102.04</ele>
        <time>2022-09-17T08:30:05Z</time>
      </trkpt>
      <trkpt lat="43.1489" lon="5.98637">
        <ele>103.48</ele>
        <time>2022-09-17T08:30:11Z</time>
      </trkpt>
      <trkpt lat="43.14904" lon="5.98637">
        <ele>103.96</ele>
        <time>2022-09-17T08:30:15Z</time>
      </trkpt>
      <trkpt lat="43.14913" lon="5.9862">
        <ele>103.96</ele>
        <time>2022-09-17T08:30:21Z</time>
      </trkpt>
      <trkpt lat="43.14916" lon="5.98604">
        <ele>103.96</ele>
        <time>2022-09-17T08:30:25Z</time>
      </trkpt>
      <trkpt lat="43.14919" lon="5.98601">
        <ele>103.96</ele>
        <time>2022-09-17T08:30:27Z</time>
      </trkpt>
      <trkpt lat="43.14922" lon="5.98601">
        <ele>103.96</ele>
        <time>2022-09-17T08:30:28Z</time>
      </trkpt>
      <trkpt lat="43.14936" lon="5.98602">
        <ele>104.92</ele>
        <time>2022-09-17T08:30:33Z</time>
      </trkpt>
      <trkpt lat="43.14937" lon="5.986">
        <ele>104.92</ele>
        <time>2022-09-17T08:30:34Z</time>
      </trkpt>
      <trkpt lat="43.14938" lon="5.98597">
        <ele>104.92</ele>
        <time>2022-09-17T08:30:35Z</time>
      </trkpt>
      <trkpt lat="43.14939" lon="5.98594">
        <ele>104.44</ele>
        <time>2022-09-17T08:30:36Z</time>
      </trkpt>
      <trkpt lat="43.14942" lon="5.98577">
        <ele>103.96</ele>
        <time>2022-09-17T08:30:40Z</time>
      </trkpt>
      <trkpt lat="43.14947" lon="5.98534">
        <ele>102.52</ele>
        <time>2022-09-17T08:30:50Z</time>
      </trkpt>
      <trkpt lat="43.14948" lon="5.98533">
        <ele>103</ele>
        <time>2022-09-17T08:30:51Z</time>
      </trkpt>
      <trkpt lat="43.14951" lon="5.98534">
        <ele>103</ele>
        <time>2022-09-17T08:30:53Z</time>
      </trkpt>
      <trkpt lat="43.14954" lon="5.9853">
        <ele>103.96</ele>
        <time>2022-09-17T08:30:59Z</time>
      </trkpt>
      <trkpt lat="43.14955" lon="5.98527">
        <ele>103.96</ele>
        <time>2022-09-17T08:31:00Z</time>
      </trkpt>
      <trkpt lat="43.14956" lon="5.98523">
        <ele>103.48</ele>
        <time>2022-09-17T08:31:01Z</time>
      </trkpt>
      <trkpt lat="43.14956" lon="5.98518">
        <ele>103.48</ele>
        <time>2022-09-17T08:31:02Z</time>
      </trkpt>
      <trkpt lat="43.14956" lon="5.98514">
        <ele>103.48</ele>
        <time>2022-09-17T08:31:03Z</time>
      </trkpt>
      <trkpt lat="43.14956" lon="5.9851">
        <ele>103.48</ele>
        <time>2022-09-17T08:31:04Z</time>
      </trkpt>
      <trkpt lat="43.1496" lon="5.9848">
        <ele>103.48</ele>
        <time>2022-09-17T08:31:12Z</time>
      </trkpt>
      <trkpt lat="43.14963" lon="5.98478">
        <ele>103.96</ele>
        <time>2022-09-17T08:31:13Z</time>
      </trkpt>
      <trkpt lat="43.14966" lon="5.98478">
        <ele>103.96</ele>
        <time>2022-09-17T08:31:14Z</time>
      </trkpt>
      <trkpt lat="43.14969" lon="5.98479">
        <ele>103.96</ele>
        <time>2022-09-17T08:31:15Z</time>
      </trkpt>
      <trkpt lat="43.14972" lon="5.98481">
        <ele>104.44</ele>
        <time>2022-09-17T08:31:16Z</time>
      </trkpt>
      <trkpt lat="43.15013" lon="5.9851">
        <ele>108.77</ele>
        <time>2022-09-17T08:31:31Z</time>
      </trkpt>
      <trkpt lat="43.15039" lon="5.9855">
        <ele>113.57</ele>
        <time>2022-09-17T08:31:45Z</time>
      </trkpt>
      <trkpt lat="43.15065" lon="5.98609">
        <ele>115.98</ele>
        <time>2022-09-17T08:32:00Z</time>
      </trkpt>
      <trkpt lat="43.15096" lon="5.98658">
        <ele>118.86</ele>
        <time>2022-09-17T08:32:15Z</time>
      </trkpt>
      <trkpt lat="43.15114" lon="5.98705">
        <ele>123.67</ele>
        <time>2022-09-17T08:32:31Z</time>
      </trkpt>
      <trkpt lat="43.15125" lon="5.98737">
        <ele>125.11</ele>
        <time>2022-09-17T08:32:42Z</time>
      </trkpt>
      <trkpt lat="43.15145" lon="5.98768">
        <ele>126.07</ele>
        <time>2022-09-17T08:32:55Z</time>
      </trkpt>
      <trkpt lat="43.15154" lon="5.98776">
        <ele>126.55</ele>
        <time>2022-09-17T08:33:00Z</time>
      </trkpt>
      <trkpt lat="43.15156" lon="5.98777">
        <ele>126.55</ele>
        <time>2022-09-17T08:33:01Z</time>
      </trkpt>
      <trkpt lat="43.15158" lon="5.98777">
        <ele>126.55</ele>
        <time>2022-09-17T08:33:02Z</time>
      </trkpt>
      <trkpt lat="43.1516" lon="5.98776">
        <ele>126.55</ele>
        <time>2022-09-17T08:33:03Z</time>
      </trkpt>
      <trkpt lat="43.15162" lon="5.98775">
        <ele>126.55</ele>
        <time>2022-09-17T08:33:04Z</time>
      </trkpt>
      <trkpt lat="43.15163" lon="5.98773">
        <ele>126.07</ele>
        <time>2022-09-17T08:33:05Z</time>
      </trkpt>
      <trkpt lat="43.15164" lon="5.98771">
        <ele>126.07</ele>
        <time>2022-09-17T08:33:06Z</time>
      </trkpt>
      <trkpt lat="43.15164" lon="5.98769">
        <ele>125.59</ele>
        <time>2022-09-17T08:33:07Z</time>
      </trkpt>
      <trkpt lat="43.15163" lon="5.98767">
        <ele>125.59</ele>
        <time>2022-09-17T08:33:08Z</time>
      </trkpt>
      <trkpt lat="43.15158" lon="5.98749">
        <ele>125.59</ele>
        <time>2022-09-17T08:33:16Z</time>
      </trkpt>
      <trkpt lat="43.15155" lon="5.98738">
        <ele>126.55</ele>
        <time>2022-09-17T08:33:33Z</time>
      </trkpt>
      <trkpt lat="43.15153" lon="5.9873">
        <ele>127.99</ele>
        <time>2022-09-17T08:33:42Z</time>
      </trkpt>
      <trkpt lat="43.15153" lon="5.98728">
        <ele>127.99</ele>
        <time>2022-09-17T08:33:43Z</time>
      </trkpt>
      <trkpt lat="43.15153" lon="5.98725">
        <ele>127.99</ele>
        <time>2022-09-17T08:33:44Z</time>
      </trkpt>
      <trkpt lat="43.15153" lon="5.98723">
        <ele>128.47</ele>
        <time>2022-09-17T08:33:45Z</time>
      </trkpt>
      <trkpt lat="43.15152" lon="5.98721">
        <ele>128.47</ele>
        <time>2022-09-17T08:33:46Z</time>
      </trkpt>
      <trkpt lat="43.15152" lon="5.98719">
        <ele>128.47</ele>
        <time>2022-09-17T08:33:47Z</time>
      </trkpt>
      <trkpt lat="43.15153" lon="5.98716">
        <ele>127.99</ele>
        <time>2022-09-17T08:33:48Z</time>
      </trkpt>
      <trkpt lat="43.15153" lon="5.98713">
        <ele>127.99</ele>
        <time>2022-09-17T08:33:49Z</time>
      </trkpt>
      <trkpt lat="43.15153" lon="5.9871">
        <ele>128.47</ele>
        <time>2022-09-17T08:33:50Z</time>
      </trkpt>
      <trkpt lat="43.1515" lon="5.9868">
        <ele>128.95</ele>
        <time>2022-09-17T08:34:02Z</time>
      </trkpt>
      <trkpt lat="43.15148" lon="5.98656">
        <ele>128.95</ele>
        <time>2022-09-17T08:34:11Z</time>
      </trkpt>
      <trkpt lat="43.15148" lon="5.98652">
        <ele>128.95</ele>
        <time>2022-09-17T08:34:12Z</time>
      </trkpt>
      <trkpt lat="43.15148" lon="5.98649">
        <ele>128.95</ele>
        <time>2022-09-17T08:34:13Z</time>
      </trkpt>
      <trkpt lat="43.15146" lon="5.9862">
        <ele>128.95</ele>
        <time>2022-09-17T08:34:24Z</time>
      </trkpt>
      <trkpt lat="43.15146" lon="5.98616">
        <ele>129.43</ele>
        <time>2022-09-17T08:34:25Z</time>
      </trkpt>
      <trkpt lat="43.15147" lon="5.98583">
        <ele>133.28</ele>
        <time>2022-09-17T08:34:37Z</time>
      </trkpt>
      <trkpt lat="43.15147" lon="5.98581">
        <ele>134.24</ele>
        <time>2022-09-17T08:34:38Z</time>
      </trkpt>
      <trkpt lat="43.15153" lon="5.98561">
        <ele>137.61</ele>
        <time>2022-09-17T08:34:47Z</time>
      </trkpt>
      <trkpt lat="43.15155" lon="5.98543">
        <ele>139.53</ele>
        <time>2022-09-17T08:34:53Z</time>
      </trkpt>
      <trkpt lat="43.15155" lon="5.98541">
        <ele>139.53</ele>
        <time>2022-09-17T08:34:54Z</time>
      </trkpt>
      <trkpt lat="43.15168" lon="5.98521">
        <ele>144.34</ele>
        <time>2022-09-17T08:35:05Z</time>
      </trkpt>
      <trkpt lat="43.15186" lon="5.98496">
        <ele>149.62</ele>
        <time>2022-09-17T08:35:19Z</time>
      </trkpt>
      <trkpt lat="43.15203" lon="5.98455">
        <ele>154.43</ele>
        <time>2022-09-17T08:35:33Z</time>
      </trkpt>
      <trkpt lat="43.15203" lon="5.98439">
        <ele>155.39</ele>
        <time>2022-09-17T08:35:37Z</time>
      </trkpt>
      <trkpt lat="43.15202" lon="5.98437">
        <ele>155.87</ele>
        <time>2022-09-17T08:35:38Z</time>
      </trkpt>
      <trkpt lat="43.152" lon="5.98434">
        <ele>156.83</ele>
        <time>2022-09-17T08:35:39Z</time>
      </trkpt>
      <trkpt lat="43.15198" lon="5.98432">
        <ele>157.31</ele>
        <time>2022-09-17T08:35:40Z</time>
      </trkpt>
      <trkpt lat="43.15196" lon="5.9843">
        <ele>157.79</ele>
        <time>2022-09-17T08:35:41Z</time>
      </trkpt>
      <trkpt lat="43.15194" lon="5.98429">
        <ele>158.27</ele>
        <time>2022-09-17T08:35:42Z</time>
      </trkpt>
      <trkpt lat="43.15192" lon="5.98427">
        <ele>158.75</ele>
        <time>2022-09-17T08:35:43Z</time>
      </trkpt>
      <trkpt lat="43.1519" lon="5.98426">
        <ele>159.24</ele>
        <time>2022-09-17T08:35:44Z</time>
      </trkpt>
      <trkpt lat="43.15188" lon="5.98425">
        <ele>159.72</ele>
        <time>2022-09-17T08:35:45Z</time>
      </trkpt>
      <trkpt lat="43.15186" lon="5.98422">
        <ele>160.68</ele>
        <time>2022-09-17T08:35:47Z</time>
      </trkpt>
      <trkpt lat="43.15184" lon="5.98419">
        <ele>161.16</ele>
        <time>2022-09-17T08:35:48Z</time>
      </trkpt>
      <trkpt lat="43.15162" lon="5.98403">
        <ele>165.96</ele>
        <time>2022-09-17T08:35:58Z</time>
      </trkpt>
      <trkpt lat="43.1516" lon="5.98402">
        <ele>165.96</ele>
        <time>2022-09-17T08:35:59Z</time>
      </trkpt>
      <trkpt lat="43.15158" lon="5.984">
        <ele>166.45</ele>
        <time>2022-09-17T08:36:00Z</time>
      </trkpt>
      <trkpt lat="43.15156" lon="5.98397">
        <ele>167.41</ele>
        <time>2022-09-17T08:36:01Z</time>
      </trkpt>
      <trkpt lat="43.15155" lon="5.98395">
        <ele>167.41</ele>
        <time>2022-09-17T08:36:02Z</time>
      </trkpt>
      <trkpt lat="43.15154" lon="5.98392">
        <ele>167.89</ele>
        <time>2022-09-17T08:36:03Z</time>
      </trkpt>
      <trkpt lat="43.15153" lon="5.9839">
        <ele>168.37</ele>
        <time>2022-09-17T08:36:04Z</time>
      </trkpt>
      <trkpt lat="43.15151" lon="5.98388">
        <ele>168.85</ele>
        <time>2022-09-17T08:36:05Z</time>
      </trkpt>
      <trkpt lat="43.15143" lon="5.98385">
        <ele>170.77</ele>
        <time>2022-09-17T08:36:16Z</time>
      </trkpt>
      <trkpt lat="43.15139" lon="5.98395">
        <ele>172.21</ele>
        <time>2022-09-17T08:36:27Z</time>
      </trkpt>
      <trkpt lat="43.15142" lon="5.98395">
        <ele>170.77</ele>
        <time>2022-09-17T08:36:58Z</time>
      </trkpt>
      <trkpt lat="43.15141" lon="5.98399">
        <ele>166.45</ele>
        <time>2022-09-17T08:37:24Z</time>
      </trkpt>
      <trkpt lat="43.15148" lon="5.98385">
        <ele>159.24</ele>
        <time>2022-09-17T08:38:16Z</time>
      </trkpt>
      <trkpt lat="43.15144" lon="5.98394">
        <ele>152.99</ele>
        <time>2022-09-17T08:38:56Z</time>
      </trkpt>
      <trkpt lat="43.15146" lon="5.98397">
        <ele>153.95</ele>
        <time>2022-09-17T08:39:09Z</time>
      </trkpt>
      <trkpt lat="43.1515" lon="5.98394">
        <ele>154.43</ele>
        <time>2022-09-17T08:39:42Z</time>
      </trkpt>
      <trkpt lat="43.15149" lon="5.98376">
        <ele>153.95</ele>
        <time>2022-09-17T08:40:30Z</time>
      </trkpt>
      <trkpt lat="43.1515" lon="5.98377">
        <ele>153.95</ele>
        <time>2022-09-17T08:41:10Z</time>
      </trkpt>
      <trkpt lat="43.15153" lon="5.98378">
        <ele>155.39</ele>
        <time>2022-09-17T08:41:23Z</time>
      </trkpt>
      <trkpt lat="43.15155" lon="5.98379">
        <ele>155.39</ele>
        <time>2022-09-17T08:41:24Z</time>
      </trkpt>
      <trkpt lat="43.15157" lon="5.98383">
        <ele>155.87</ele>
        <time>2022-09-17T08:41:25Z</time>
      </trkpt>
      <trkpt lat="43.15159" lon="5.98385">
        <ele>155.87</ele>
        <time>2022-09-17T08:41:26Z</time>
      </trkpt>
      <trkpt lat="43.15161" lon="5.98386">
        <ele>156.35</ele>
        <time>2022-09-17T08:41:27Z</time>
      </trkpt>
      <trkpt lat="43.15184" lon="5.98401">
        <ele>159.24</ele>
        <time>2022-09-17T08:41:41Z</time>
      </trkpt>
      <trkpt lat="43.15204" lon="5.98417">
        <ele>160.68</ele>
        <time>2022-09-17T08:41:53Z</time>
      </trkpt>
      <trkpt lat="43.15219" lon="5.98429">
        <ele>163.08</ele>
        <time>2022-09-17T08:42:01Z</time>
      </trkpt>
      <trkpt lat="43.15221" lon="5.9843">
        <ele>163.08</ele>
        <time>2022-09-17T08:42:02Z</time>
      </trkpt>
      <trkpt lat="43.15223" lon="5.9843">
        <ele>163.08</ele>
        <time>2022-09-17T08:42:03Z</time>
      </trkpt>
      <trkpt lat="43.15239" lon="5.98453">
        <ele>165</ele>
        <time>2022-09-17T08:42:16Z</time>
      </trkpt>
      <trkpt lat="43.15238" lon="5.98489">
        <ele>166.93</ele>
        <time>2022-09-17T08:42:31Z</time>
      </trkpt>
      <trkpt lat="43.15227" lon="5.98514">
        <ele>168.85</ele>
        <time>2022-09-17T08:42:43Z</time>
      </trkpt>
      <trkpt lat="43.15217" lon="5.98541">
        <ele>170.29</ele>
        <time>2022-09-17T08:42:56Z</time>
      </trkpt>
      <trkpt lat="43.1521" lon="5.98571">
        <ele>170.77</ele>
        <time>2022-09-17T08:43:09Z</time>
      </trkpt>
      <trkpt lat="43.15211" lon="5.98602">
        <ele>172.21</ele>
        <time>2022-09-17T08:43:22Z</time>
      </trkpt>
      <trkpt lat="43.15233" lon="5.98623">
        <ele>174.14</ele>
        <time>2022-09-17T08:43:37Z</time>
      </trkpt>
      <trkpt lat="43.15253" lon="5.98628">
        <ele>175.58</ele>
        <time>2022-09-17T08:43:50Z</time>
      </trkpt>
      <trkpt lat="43.15278" lon="5.98617">
        <ele>178.94</ele>
        <time>2022-09-17T08:44:05Z</time>
      </trkpt>
      <trkpt lat="43.15285" lon="5.98609">
        <ele>181.35</ele>
        <time>2022-09-17T08:44:13Z</time>
      </trkpt>
      <trkpt lat="43.15286" lon="5.98607">
        <ele>181.83</ele>
        <time>2022-09-17T08:44:14Z</time>
      </trkpt>
      <trkpt lat="43.15289" lon="5.98605">
        <ele>182.31</ele>
        <time>2022-09-17T08:44:15Z</time>
      </trkpt>
      <trkpt lat="43.1529" lon="5.98604">
        <ele>182.79</ele>
        <time>2022-09-17T08:44:16Z</time>
      </trkpt>
      <trkpt lat="43.15292" lon="5.98602">
        <ele>182.79</ele>
        <time>2022-09-17T08:44:17Z</time>
      </trkpt>
      <trkpt lat="43.15311" lon="5.98582">
        <ele>185.19</ele>
        <time>2022-09-17T08:44:30Z</time>
      </trkpt>
      <trkpt lat="43.15329" lon="5.98556">
        <ele>187.59</ele>
        <time>2022-09-17T08:44:43Z</time>
      </trkpt>
      <trkpt lat="43.15341" lon="5.98515">
        <ele>190.48</ele>
        <time>2022-09-17T08:44:59Z</time>
      </trkpt>
      <trkpt lat="43.15354" lon="5.98483">
        <ele>191.44</ele>
        <time>2022-09-17T08:45:13Z</time>
      </trkpt>
      <trkpt lat="43.15378" lon="5.98478">
        <ele>195.28</ele>
        <time>2022-09-17T08:45:26Z</time>
      </trkpt>
      <trkpt lat="43.15395" lon="5.98479">
        <ele>198.17</ele>
        <time>2022-09-17T08:45:34Z</time>
      </trkpt>
      <trkpt lat="43.15396" lon="5.9848">
        <ele>198.65</ele>
        <time>2022-09-17T08:45:35Z</time>
      </trkpt>
      <trkpt lat="43.15398" lon="5.98481">
        <ele>199.13</ele>
        <time>2022-09-17T08:45:36Z</time>
      </trkpt>
      <trkpt lat="43.154" lon="5.98482">
        <ele>199.61</ele>
        <time>2022-09-17T08:45:37Z</time>
      </trkpt>
      <trkpt lat="43.15402" lon="5.98483">
        <ele>200.09</ele>
        <time>2022-09-17T08:45:38Z</time>
      </trkpt>
      <trkpt lat="43.15404" lon="5.98484">
        <ele>200.57</ele>
        <time>2022-09-17T08:45:39Z</time>
      </trkpt>
      <trkpt lat="43.15406" lon="5.98485">
        <ele>200.57</ele>
        <time>2022-09-17T08:45:40Z</time>
      </trkpt>
      <trkpt lat="43.15408" lon="5.98485">
        <ele>201.05</ele>
        <time>2022-09-17T08:45:41Z</time>
      </trkpt>
      <trkpt lat="43.15409" lon="5.98487">
        <ele>201.53</ele>
        <time>2022-09-17T08:45:42Z</time>
      </trkpt>
      <trkpt lat="43.15411" lon="5.98487">
        <ele>201.53</ele>
        <time>2022-09-17T08:45:43Z</time>
      </trkpt>
      <trkpt lat="43.15413" lon="5.98488">
        <ele>202.01</ele>
        <time>2022-09-17T08:45:44Z</time>
      </trkpt>
      <trkpt lat="43.15415" lon="5.98488">
        <ele>202.01</ele>
        <time>2022-09-17T08:45:45Z</time>
      </trkpt>
      <trkpt lat="43.15417" lon="5.98489">
        <ele>202.49</ele>
        <time>2022-09-17T08:45:46Z</time>
      </trkpt>
      <trkpt lat="43.15419" lon="5.98489">
        <ele>202.01</ele>
        <time>2022-09-17T08:45:47Z</time>
      </trkpt>
      <trkpt lat="43.15421" lon="5.9849">
        <ele>202.01</ele>
        <time>2022-09-17T08:45:48Z</time>
      </trkpt>
      <trkpt lat="43.15422" lon="5.98491">
        <ele>202.98</ele>
        <time>2022-09-17T08:45:49Z</time>
      </trkpt>
      <trkpt lat="43.15449" lon="5.98508">
        <ele>207.78</ele>
        <time>2022-09-17T08:46:06Z</time>
      </trkpt>
      <trkpt lat="43.15466" lon="5.98516">
        <ele>210.19</ele>
        <time>2022-09-17T08:46:20Z</time>
      </trkpt>
      <trkpt lat="43.15466" lon="5.98514">
        <ele>210.19</ele>
        <time>2022-09-17T08:46:21Z</time>
      </trkpt>
      <trkpt lat="43.15465" lon="5.98511">
        <ele>210.67</ele>
        <time>2022-09-17T08:46:22Z</time>
      </trkpt>
      <trkpt lat="43.15465" lon="5.98508">
        <ele>210.67</ele>
        <time>2022-09-17T08:46:23Z</time>
      </trkpt>
      <trkpt lat="43.15464" lon="5.98506">
        <ele>210.67</ele>
        <time>2022-09-17T08:46:24Z</time>
      </trkpt>
      <trkpt lat="43.15463" lon="5.98504">
        <ele>210.67</ele>
        <time>2022-09-17T08:46:25Z</time>
      </trkpt>
      <trkpt lat="43.15462" lon="5.98501">
        <ele>210.67</ele>
        <time>2022-09-17T08:46:26Z</time>
      </trkpt>
      <trkpt lat="43.1545" lon="5.98477">
        <ele>212.11</ele>
        <time>2022-09-17T08:46:39Z</time>
      </trkpt>
      <trkpt lat="43.15448" lon="5.98475">
        <ele>212.11</ele>
        <time>2022-09-17T08:46:40Z</time>
      </trkpt>
      <trkpt lat="43.15441" lon="5.9845">
        <ele>212.11</ele>
        <time>2022-09-17T08:46:54Z</time>
      </trkpt>
      <trkpt lat="43.1544" lon="5.98448">
        <ele>212.11</ele>
        <time>2022-09-17T08:46:55Z</time>
      </trkpt>
      <trkpt lat="43.15439" lon="5.98447">
        <ele>211.63</ele>
        <time>2022-09-17T08:46:56Z</time>
      </trkpt>
      <trkpt lat="43.15438" lon="5.98445">
        <ele>211.63</ele>
        <time>2022-09-17T08:46:57Z</time>
      </trkpt>
      <trkpt lat="43.15437" lon="5.98443">
        <ele>211.63</ele>
        <time>2022-09-17T08:46:58Z</time>
      </trkpt>
      <trkpt lat="43.15431" lon="5.98429">
        <ele>209.7</ele>
        <time>2022-09-17T08:47:06Z</time>
      </trkpt>
      <trkpt lat="43.1543" lon="5.98426">
        <ele>209.7</ele>
        <time>2022-09-17T08:47:07Z</time>
      </trkpt>
      <trkpt lat="43.1543" lon="5.98423">
        <ele>209.22</ele>
        <time>2022-09-17T08:47:08Z</time>
      </trkpt>
      <trkpt lat="43.15429" lon="5.9842">
        <ele>209.22</ele>
        <time>2022-09-17T08:47:09Z</time>
      </trkpt>
      <trkpt lat="43.15429" lon="5.98418">
        <ele>208.74</ele>
        <time>2022-09-17T08:47:10Z</time>
      </trkpt>
      <trkpt lat="43.15428" lon="5.98414">
        <ele>208.26</ele>
        <time>2022-09-17T08:47:11Z</time>
      </trkpt>
      <trkpt lat="43.15428" lon="5.98412">
        <ele>207.78</ele>
        <time>2022-09-17T08:47:12Z</time>
      </trkpt>
      <trkpt lat="43.15427" lon="5.98409">
        <ele>207.78</ele>
        <time>2022-09-17T08:47:13Z</time>
      </trkpt>
      <trkpt lat="43.15427" lon="5.98407">
        <ele>207.3</ele>
        <time>2022-09-17T08:47:14Z</time>
      </trkpt>
      <trkpt lat="43.15426" lon="5.98371">
        <ele>204.42</ele>
        <time>2022-09-17T08:47:28Z</time>
      </trkpt>
      <trkpt lat="43.15425" lon="5.98328">
        <ele>204.9</ele>
        <time>2022-09-17T08:47:44Z</time>
      </trkpt>
      <trkpt lat="43.15424" lon="5.98316">
        <ele>205.38</ele>
        <time>2022-09-17T08:47:49Z</time>
      </trkpt>
      <trkpt lat="43.15424" lon="5.98313">
        <ele>204.9</ele>
        <time>2022-09-17T08:47:50Z</time>
      </trkpt>
      <trkpt lat="43.15424" lon="5.9831">
        <ele>204.9</ele>
        <time>2022-09-17T08:47:51Z</time>
      </trkpt>
      <trkpt lat="43.15424" lon="5.98307">
        <ele>204.9</ele>
        <time>2022-09-17T08:47:52Z</time>
      </trkpt>
      <trkpt lat="43.15423" lon="5.98304">
        <ele>205.38</ele>
        <time>2022-09-17T08:47:53Z</time>
      </trkpt>
      <trkpt lat="43.15423" lon="5.98302">
        <ele>205.86</ele>
        <time>2022-09-17T08:47:54Z</time>
      </trkpt>
      <trkpt lat="43.15421" lon="5.98259">
        <ele>208.26</ele>
        <time>2022-09-17T08:48:09Z</time>
      </trkpt>
      <trkpt lat="43.15418" lon="5.9821">
        <ele>213.07</ele>
        <time>2022-09-17T08:48:28Z</time>
      </trkpt>
      <trkpt lat="43.15412" lon="5.98181">
        <ele>219.8</ele>
        <time>2022-09-17T08:48:40Z</time>
      </trkpt>
      <trkpt lat="43.15414" lon="5.98139">
        <ele>226.05</ele>
        <time>2022-09-17T08:48:56Z</time>
      </trkpt>
      <trkpt lat="43.15433" lon="5.98141">
        <ele>232.3</ele>
        <time>2022-09-17T08:49:08Z</time>
      </trkpt>
      <trkpt lat="43.15456" lon="5.98149">
        <ele>237.58</ele>
        <time>2022-09-17T08:49:20Z</time>
      </trkpt>
      <trkpt lat="43.15486" lon="5.98154">
        <ele>243.83</ele>
        <time>2022-09-17T08:49:38Z</time>
      </trkpt>
      <trkpt lat="43.15507" lon="5.98165">
        <ele>247.2</ele>
        <time>2022-09-17T08:49:51Z</time>
      </trkpt>
      <trkpt lat="43.15527" lon="5.98191">
        <ele>249.12</ele>
        <time>2022-09-17T08:50:06Z</time>
      </trkpt>
      <trkpt lat="43.15547" lon="5.98217">
        <ele>248.64</ele>
        <time>2022-09-17T08:50:18Z</time>
      </trkpt>
      <trkpt lat="43.15549" lon="5.98219">
        <ele>248.64</ele>
        <time>2022-09-17T08:50:19Z</time>
      </trkpt>
      <trkpt lat="43.15578" lon="5.98263">
        <ele>251.04</ele>
        <time>2022-09-17T08:50:37Z</time>
      </trkpt>
      <trkpt lat="43.15588" lon="5.98292">
        <ele>252.48</ele>
        <time>2022-09-17T08:50:48Z</time>
      </trkpt>
      <trkpt lat="43.15589" lon="5.98294">
        <ele>252.96</ele>
        <time>2022-09-17T08:50:49Z</time>
      </trkpt>
      <trkpt lat="43.15589" lon="5.98296">
        <ele>252.96</ele>
        <time>2022-09-17T08:50:50Z</time>
      </trkpt>
      <trkpt lat="43.1559" lon="5.98298">
        <ele>253.44</ele>
        <time>2022-09-17T08:50:51Z</time>
      </trkpt>
      <trkpt lat="43.15592" lon="5.98301">
        <ele>253.93</ele>
        <time>2022-09-17T08:50:52Z</time>
      </trkpt>
      <trkpt lat="43.15592" lon="5.98304">
        <ele>254.41</ele>
        <time>2022-09-17T08:50:53Z</time>
      </trkpt>
      <trkpt lat="43.15593" lon="5.98306">
        <ele>254.41</ele>
        <time>2022-09-17T08:50:54Z</time>
      </trkpt>
      <trkpt lat="43.15594" lon="5.98309">
        <ele>254.41</ele>
        <time>2022-09-17T08:50:55Z</time>
      </trkpt>
      <trkpt lat="43.15613" lon="5.98347">
        <ele>256.33</ele>
        <time>2022-09-17T08:51:10Z</time>
      </trkpt>
      <trkpt lat="43.15633" lon="5.98367">
        <ele>258.25</ele>
        <time>2022-09-17T08:51:20Z</time>
      </trkpt>
      <trkpt lat="43.1566" lon="5.98368">
        <ele>262.58</ele>
        <time>2022-09-17T08:51:31Z</time>
      </trkpt>
      <trkpt lat="43.15685" lon="5.98348">
        <ele>264.98</ele>
        <time>2022-09-17T08:51:43Z</time>
      </trkpt>
      <trkpt lat="43.157" lon="5.98313">
        <ele>266.42</ele>
        <time>2022-09-17T08:51:55Z</time>
      </trkpt>
      <trkpt lat="43.15699" lon="5.98269">
        <ele>265.94</ele>
        <time>2022-09-17T08:52:06Z</time>
      </trkpt>
      <trkpt lat="43.15723" lon="5.98232">
        <ele>264.5</ele>
        <time>2022-09-17T08:52:16Z</time>
      </trkpt>
      <trkpt lat="43.15728" lon="5.98224">
        <ele>263.06</ele>
        <time>2022-09-17T08:52:18Z</time>
      </trkpt>
      <trkpt lat="43.15729" lon="5.98218">
        <ele>262.58</ele>
        <time>2022-09-17T08:52:19Z</time>
      </trkpt>
      <trkpt lat="43.15729" lon="5.98212">
        <ele>262.58</ele>
        <time>2022-09-17T08:52:20Z</time>
      </trkpt>
      <trkpt lat="43.15728" lon="5.98206">
        <ele>262.58</ele>
        <time>2022-09-17T08:52:21Z</time>
      </trkpt>
      <trkpt lat="43.15727" lon="5.98199">
        <ele>262.58</ele>
        <time>2022-09-17T08:52:22Z</time>
      </trkpt>
      <trkpt lat="43.15726" lon="5.98193">
        <ele>262.58</ele>
        <time>2022-09-17T08:52:23Z</time>
      </trkpt>
      <trkpt lat="43.15723" lon="5.98188">
        <ele>262.58</ele>
        <time>2022-09-17T08:52:24Z</time>
      </trkpt>
      <trkpt lat="43.15714" lon="5.98167">
        <ele>262.58</ele>
        <time>2022-09-17T08:52:28Z</time>
      </trkpt>
      <trkpt lat="43.15711" lon="5.98162">
        <ele>262.58</ele>
        <time>2022-09-17T08:52:29Z</time>
      </trkpt>
      <trkpt lat="43.15709" lon="5.98158">
        <ele>262.58</ele>
        <time>2022-09-17T08:52:30Z</time>
      </trkpt>
      <trkpt lat="43.15706" lon="5.98154">
        <ele>262.58</ele>
        <time>2022-09-17T08:52:31Z</time>
      </trkpt>
      <trkpt lat="43.15704" lon="5.9815">
        <ele>262.58</ele>
        <time>2022-09-17T08:52:32Z</time>
      </trkpt>
      <trkpt lat="43.15702" lon="5.98147">
        <ele>263.06</ele>
        <time>2022-09-17T08:52:33Z</time>
      </trkpt>
      <trkpt lat="43.15685" lon="5.98111">
        <ele>264.98</ele>
        <time>2022-09-17T08:52:41Z</time>
      </trkpt>
      <trkpt lat="43.15684" lon="5.98106">
        <ele>265.46</ele>
        <time>2022-09-17T08:52:42Z</time>
      </trkpt>
      <trkpt lat="43.15682" lon="5.98101">
        <ele>265.46</ele>
        <time>2022-09-17T08:52:43Z</time>
      </trkpt>
      <trkpt lat="43.15681" lon="5.98096">
        <ele>265.46</ele>
        <time>2022-09-17T08:52:44Z</time>
      </trkpt>
      <trkpt lat="43.15679" lon="5.98091">
        <ele>265.46</ele>
        <time>2022-09-17T08:52:45Z</time>
      </trkpt>
      <trkpt lat="43.15675" lon="5.98065">
        <ele>265.94</ele>
        <time>2022-09-17T08:52:50Z</time>
      </trkpt>
      <trkpt lat="43.15674" lon="5.98058">
        <ele>264.98</ele>
        <time>2022-09-17T08:52:51Z</time>
      </trkpt>
      <trkpt lat="43.15673" lon="5.98044">
        <ele>264.98</ele>
        <time>2022-09-17T08:52:53Z</time>
      </trkpt>
      <trkpt lat="43.15671" lon="5.98009">
        <ele>264.5</ele>
        <time>2022-09-17T08:52:58Z</time>
      </trkpt>
      <trkpt lat="43.15668" lon="5.97996">
        <ele>264.98</ele>
        <time>2022-09-17T08:53:00Z</time>
      </trkpt>
      <trkpt lat="43.15667" lon="5.97989">
        <ele>264.98</ele>
        <time>2022-09-17T08:53:01Z</time>
      </trkpt>
      <trkpt lat="43.15663" lon="5.97964">
        <ele>265.94</ele>
        <time>2022-09-17T08:53:05Z</time>
      </trkpt>
      <trkpt lat="43.15662" lon="5.97953">
        <ele>266.9</ele>
        <time>2022-09-17T08:53:07Z</time>
      </trkpt>
      <trkpt lat="43.15661" lon="5.97948">
        <ele>267.38</ele>
        <time>2022-09-17T08:53:08Z</time>
      </trkpt>
      <trkpt lat="43.15655" lon="5.97915">
        <ele>268.83</ele>
        <time>2022-09-17T08:53:19Z</time>
      </trkpt>
      <trkpt lat="43.15652" lon="5.979">
        <ele>269.79</ele>
        <time>2022-09-17T08:53:24Z</time>
      </trkpt>
      <trkpt lat="43.15654" lon="5.97898">
        <ele>270.27</ele>
        <time>2022-09-17T08:53:25Z</time>
      </trkpt>
      <trkpt lat="43.15656" lon="5.97897">
        <ele>270.27</ele>
        <time>2022-09-17T08:53:26Z</time>
      </trkpt>
      <trkpt lat="43.15657" lon="5.97896">
        <ele>270.27</ele>
        <time>2022-09-17T08:53:27Z</time>
      </trkpt>
      <trkpt lat="43.15659" lon="5.97894">
        <ele>270.27</ele>
        <time>2022-09-17T08:53:28Z</time>
      </trkpt>
      <trkpt lat="43.15659" lon="5.97891">
        <ele>270.27</ele>
        <time>2022-09-17T08:53:29Z</time>
      </trkpt>
      <trkpt lat="43.15659" lon="5.97888">
        <ele>270.75</ele>
        <time>2022-09-17T08:53:30Z</time>
      </trkpt>
      <trkpt lat="43.15658" lon="5.97884">
        <ele>271.23</ele>
        <time>2022-09-17T08:53:31Z</time>
      </trkpt>
    </trkseg>
  </trk>
</gpx>